createdAt,value
2023-02-19T00:00:55.307Z,25
2023-02-19T00:03:55.303Z,47
2023-02-19T00:06:05.611Z,42
2023-02-19T00:08:57.000Z,27
2023-02-19T00:11:05.582Z,31
2023-02-19T00:14:55.404Z,32
2023-02-19T00:18:55.288Z,24
2023-02-19T00:21:55.291Z,29
2023-02-19T00:23:55.276Z,27
2023-02-19T00:25:55.414Z,24
2023-02-19T00:27:55.451Z,31
2023-02-19T00:30:05.598Z,30
2023-02-19T00:33:05.583Z,21
2023-02-19T00:35:55.313Z,20
2023-02-19T00:37:55.293Z,21
2023-02-19T00:41:55.353Z,21
2023-02-19T00:45:55.325Z,33
2023-02-19T00:48:55.285Z,27
2023-02-19T00:51:55.296Z,27
2023-02-19T00:53:55.355Z,18
2023-02-19T00:58:55.599Z,21
2023-02-19T01:01:55.424Z,22
2023-02-19T01:04:06.655Z,16
2023-02-19T01:06:05.597Z,17
2023-02-19T01:08:55.282Z,16
2023-02-19T01:10:55.378Z,18
2023-02-19T01:13:55.288Z,27
2023-02-19T01:15:55.332Z,38
2023-02-19T01:17:55.310Z,15
2023-02-19T01:20:55.328Z,16
2023-02-19T01:23:55.386Z,26
2023-02-19T01:25:55.399Z,27
2023-02-19T01:28:08.961Z,24
2023-02-19T01:31:05.609Z,45
2023-02-19T01:33:05.593Z,35
2023-02-19T01:35:55.288Z,17
2023-02-19T01:38:55.305Z,29
2023-02-19T01:40:55.305Z,28
2023-02-19T01:44:55.316Z,20
2023-02-19T01:48:05.577Z,15
2023-02-19T01:50:05.573Z,13
2023-02-19T01:52:55.354Z,16
2023-02-19T01:54:58.694Z,10
2023-02-19T01:57:55.385Z,24
2023-02-19T02:00:55.342Z,13
2023-02-19T02:02:55.325Z,10
2023-02-19T02:05:55.324Z,9
2023-02-19T02:07:55.298Z,11
2023-02-19T02:09:55.315Z,10
2023-02-19T02:11:55.329Z,40
2023-02-19T02:13:58.711Z,28
2023-02-19T02:16:55.337Z,24
2023-02-19T02:19:55.281Z,12
2023-02-19T02:21:55.308Z,11
2023-02-19T02:24:55.326Z,12
2023-02-19T02:27:05.598Z,9
2023-02-19T02:29:55.295Z,13
2023-02-19T02:31:55.381Z,15
2023-02-19T02:33:55.319Z,42
2023-02-19T02:35:55.314Z,33
2023-02-19T02:38:05.586Z,11
2023-02-19T02:41:55.298Z,20
2023-02-19T02:45:55.372Z,28
2023-02-19T02:47:55.314Z,42
2023-02-19T02:49:55.337Z,20
2023-02-19T02:53:55.343Z,71
2023-02-19T02:57:05.596Z,15
2023-02-19T02:59:55.339Z,21
2023-02-19T03:01:55.358Z,15
2023-02-19T03:04:55.434Z,57
2023-02-19T03:07:05.572Z,15
2023-02-19T03:09:55.346Z,17
2023-02-19T03:12:55.507Z,17
2023-02-19T03:15:55.339Z,18
2023-02-19T03:18:05.603Z,22
2023-02-19T03:21:55.319Z,17
2023-02-19T03:23:55.366Z,16
2023-02-19T03:25:55.386Z,17
2023-02-19T03:29:55.325Z,16
2023-02-19T03:31:55.427Z,15
2023-02-19T03:34:55.324Z,36
2023-02-19T03:37:55.317Z,36
2023-02-19T03:39:55.325Z,20
2023-02-19T03:42:56.212Z,19
2023-02-19T03:45:55.339Z,22
2023-02-19T03:47:55.377Z,21
2023-02-19T03:50:55.327Z,23
2023-02-19T03:53:55.306Z,14
2023-02-19T03:56:55.320Z,19
2023-02-19T03:59:55.342Z,34
2023-02-19T04:02:05.642Z,23
2023-02-19T04:05:06.608Z,17
2023-02-19T04:07:55.408Z,26
2023-02-19T04:10:55.308Z,19
2023-02-19T04:12:55.306Z,19
2023-02-19T04:15:55.321Z,20
2023-02-19T04:17:55.293Z,18
2023-02-19T04:19:55.356Z,22
2023-02-19T04:22:55.342Z,35
2023-02-19T04:26:05.613Z,16
2023-02-19T04:28:55.317Z,20
2023-02-19T04:30:55.353Z,16
2023-02-19T04:32:55.309Z,14
2023-02-19T04:35:05.620Z,20
2023-02-19T04:37:05.587Z,16
2023-02-19T04:39:55.311Z,18
2023-02-19T04:42:55.311Z,36
2023-02-19T04:44:55.326Z,15
2023-02-19T04:46:55.398Z,18
2023-02-19T04:49:55.321Z,39
2023-02-19T04:51:55.308Z,14
2023-02-19T04:53:55.326Z,14
2023-02-19T04:56:55.312Z,16
2023-02-19T04:59:05.597Z,11
2023-02-19T05:01:55.387Z,14
2023-02-19T05:03:55.302Z,17
2023-02-19T05:05:55.424Z,15
2023-02-19T05:08:57.012Z,13
2023-02-19T05:11:55.315Z,14
2023-02-19T05:14:55.299Z,14
2023-02-19T05:16:55.311Z,16
2023-02-19T05:18:55.340Z,15
2023-02-19T05:21:55.308Z,14
2023-02-19T05:24:00.931Z,15
2023-02-19T05:26:55.321Z,12
2023-02-19T05:28:55.348Z,21
2023-02-19T05:31:55.469Z,16
2023-02-19T05:34:55.307Z,14
2023-02-19T05:37:05.647Z,15
2023-02-19T05:39:55.317Z,17
2023-02-19T05:41:56.351Z,22
2023-02-19T05:44:55.333Z,15
2023-02-19T05:47:55.333Z,16
2023-02-19T05:50:55.330Z,20
2023-02-19T05:52:55.347Z,18
2023-02-19T05:55:55.350Z,23
2023-02-19T05:58:55.373Z,16
2023-02-19T06:01:55.324Z,30
2023-02-19T06:04:55.334Z,18
2023-02-19T06:07:55.323Z,17
2023-02-19T06:10:05.617Z,23
2023-02-19T06:13:05.578Z,18
2023-02-19T06:15:58.720Z,15
2023-02-19T06:18:55.323Z,16
2023-02-19T06:20:55.348Z,22
2023-02-19T06:24:55.392Z,16
2023-02-19T06:27:55.295Z,26
2023-02-19T06:31:05.708Z,23
2023-02-19T06:33:55.312Z,17
2023-02-19T06:35:55.324Z,19
2023-02-19T06:38:55.305Z,17
2023-02-19T06:40:55.358Z,24
2023-02-19T06:43:05.588Z,20
2023-02-19T06:45:55.333Z,21
2023-02-19T06:48:55.317Z,14
2023-02-19T06:51:55.422Z,13
2023-02-19T06:54:55.428Z,17
2023-02-19T06:57:55.301Z,17
2023-02-19T06:59:55.373Z,29
2023-02-19T07:02:55.330Z,54
2023-02-19T07:05:55.364Z,35
2023-02-19T07:09:55.356Z,21
2023-02-19T07:11:55.366Z,21
2023-02-19T07:13:55.344Z,24
2023-02-19T07:16:55.342Z,39
2023-02-19T07:18:55.360Z,21
2023-02-19T07:21:55.375Z,35
2023-02-19T07:24:55.330Z,27
2023-02-19T07:26:55.343Z,27
2023-02-19T07:29:55.360Z,24
2023-02-19T07:33:55.343Z,56
2023-02-19T07:36:55.358Z,45
2023-02-19T07:39:55.349Z,50
2023-02-19T07:41:55.343Z,38
2023-02-19T07:45:55.481Z,49
2023-02-19T07:48:55.357Z,32
2023-02-19T07:51:55.345Z,32
2023-02-19T07:53:55.389Z,47
2023-02-19T07:57:55.346Z,47
2023-02-19T07:59:55.338Z,43
2023-02-19T08:01:55.433Z,54
2023-02-19T08:04:55.361Z,51
2023-02-19T08:06:55.341Z,41
2023-02-19T08:08:57.053Z,31
2023-02-19T08:11:55.328Z,35
2023-02-19T08:14:55.332Z,43
2023-02-19T08:16:55.384Z,45
2023-02-19T08:18:55.349Z,77
2023-02-19T08:20:55.431Z,36
2023-02-19T08:23:55.317Z,22
2023-02-19T08:26:55.403Z,51
2023-02-19T08:29:55.298Z,23
2023-02-19T08:34:55.661Z,48
2023-02-19T08:37:55.336Z,53
2023-02-19T08:39:55.361Z,31
2023-02-19T08:42:55.379Z,27
2023-02-19T08:45:55.368Z,43
2023-02-19T08:48:55.348Z,36
2023-02-19T08:50:55.347Z,31
2023-02-19T08:53:56.996Z,50
2023-02-19T08:56:55.365Z,23
2023-02-19T08:59:55.362Z,37
2023-02-19T09:01:57.021Z,25
2023-02-19T09:04:05.631Z,31
2023-02-19T09:06:55.342Z,38
2023-02-19T09:08:57.029Z,27
2023-02-19T09:11:55.335Z,35
2023-02-19T09:14:55.381Z,42
2023-02-19T09:16:55.405Z,40
2023-02-19T09:19:55.442Z,61
2023-02-19T09:22:55.334Z,57
2023-02-19T09:24:55.351Z,43
2023-02-19T09:27:55.402Z,44
2023-02-19T09:30:55.512Z,29
2023-02-19T09:33:55.334Z,48
2023-02-19T09:36:55.344Z,32
2023-02-19T09:38:55.318Z,46
2023-02-19T09:41:55.315Z,41
2023-02-19T09:43:55.350Z,20
2023-02-19T09:45:55.483Z,26
2023-02-19T09:48:55.320Z,36
2023-02-19T09:51:55.362Z,42
2023-02-19T09:54:57.181Z,44
2023-02-19T09:57:55.334Z,28
2023-02-19T09:59:58.587Z,26
2023-02-19T10:02:55.326Z,30
2023-02-19T10:05:55.336Z,40
2023-02-19T10:07:55.352Z,37
2023-02-19T10:10:55.318Z,32
2023-02-19T10:14:55.332Z,37
2023-02-19T10:17:55.364Z,28
2023-02-19T10:20:55.353Z,31
2023-02-19T10:22:56.430Z,36
2023-02-19T10:25:55.359Z,37
2023-02-19T10:27:55.330Z,40
2023-02-19T10:30:55.401Z,43
2023-02-19T10:32:57.032Z,60
2023-02-19T10:35:55.399Z,33
2023-02-19T10:38:55.387Z,25
2023-02-19T10:40:58.818Z,51
2023-02-19T10:43:55.319Z,34
2023-02-19T10:45:55.406Z,33
2023-02-19T10:47:56.690Z,49
2023-02-19T10:50:55.337Z,27
2023-02-19T10:53:55.311Z,26
2023-02-19T10:55:55.344Z,31
2023-02-19T10:58:55.331Z,27
2023-02-19T11:00:55.330Z,37
2023-02-19T11:02:55.376Z,16
2023-02-19T11:05:55.321Z,42
2023-02-19T11:07:55.338Z,50
2023-02-19T11:09:58.737Z,36
2023-02-19T11:12:06.172Z,29
2023-02-19T11:14:05.650Z,30
2023-02-19T11:16:55.364Z,45
2023-02-19T11:18:56.949Z,21
2023-02-19T11:22:05.642Z,32
2023-02-19T11:24:57.873Z,20
2023-02-19T11:27:17.613Z,22
2023-02-19T11:29:55.335Z,39
2023-02-19T11:33:57.111Z,38
2023-02-19T11:36:55.367Z,46
2023-02-19T11:38:55.397Z,28
2023-02-19T11:41:57.075Z,63
2023-02-19T11:44:05.668Z,33
2023-02-19T11:46:55.366Z,24
2023-02-19T11:48:55.328Z,48
2023-02-19T11:50:55.340Z,45
2023-02-19T11:53:55.350Z,53
2023-02-19T11:55:55.363Z,62
2023-02-19T11:58:55.363Z,34
2023-02-19T12:01:55.371Z,68
2023-02-19T12:03:55.358Z,48
2023-02-19T12:06:55.324Z,43
2023-02-19T12:08:55.353Z,26
2023-02-19T12:10:58.755Z,56
2023-02-19T12:13:55.360Z,47
2023-02-19T12:17:55.353Z,46
2023-02-19T12:19:55.332Z,43
2023-02-19T12:21:55.372Z,43
2023-02-19T12:24:55.383Z,33
2023-02-19T12:26:58.753Z,65
2023-02-19T12:29:55.364Z,38
2023-02-19T12:31:55.361Z,60
2023-02-19T12:34:55.338Z,53
2023-02-19T12:36:55.368Z,39
2023-02-19T12:40:55.358Z,42
2023-02-19T12:44:05.623Z,30
2023-02-19T12:46:57.071Z,48
2023-02-19T12:50:05.656Z,59
2023-02-19T12:52:55.364Z,41
2023-02-19T12:54:56.700Z,36
2023-02-19T12:57:55.363Z,45
2023-02-19T12:59:55.402Z,61
2023-02-19T13:01:55.481Z,45
2023-02-19T13:05:55.356Z,26
2023-02-19T13:07:55.362Z,50
2023-02-19T13:10:55.412Z,59
2023-02-19T13:12:55.412Z,38
2023-02-19T13:15:55.378Z,26
2023-02-19T13:17:55.376Z,83
2023-02-19T13:20:55.390Z,52
2023-02-19T13:22:55.393Z,34
2023-02-19T13:25:57.413Z,41
2023-02-19T13:28:55.364Z,35
2023-02-19T13:32:55.364Z,46
2023-02-19T13:34:55.403Z,40
2023-02-19T13:36:55.401Z,61
2023-02-19T13:39:55.380Z,27
2023-02-19T13:42:55.360Z,39
2023-02-19T13:44:57.079Z,38
2023-02-19T13:48:55.356Z,35
2023-02-19T13:52:55.369Z,33
2023-02-19T13:54:55.371Z,34
2023-02-19T13:57:55.369Z,53
2023-02-19T14:00:55.412Z,37
2023-02-19T14:03:55.383Z,46
2023-02-19T14:05:55.456Z,21
2023-02-19T14:08:55.377Z,45
2023-02-19T14:10:55.390Z,35
2023-02-19T14:12:55.384Z,52
2023-02-19T14:14:55.359Z,32
2023-02-19T14:16:56.427Z,59
2023-02-19T14:19:55.438Z,29
2023-02-19T14:22:55.440Z,35
2023-02-19T14:24:55.371Z,28
2023-02-19T14:26:55.394Z,39
2023-02-19T14:28:55.371Z,39
2023-02-19T14:31:55.554Z,60
2023-02-19T14:34:55.360Z,47
2023-02-19T14:36:55.402Z,45
2023-02-19T14:39:55.364Z,25
2023-02-19T14:42:57.296Z,69
2023-02-19T14:45:55.366Z,56
2023-02-19T14:47:55.371Z,56
2023-02-19T14:50:55.386Z,30
2023-02-19T14:52:55.389Z,42
2023-02-19T14:55:55.357Z,78
2023-02-19T14:58:55.387Z,35
2023-02-19T15:00:55.362Z,33
2023-02-19T15:03:55.342Z,46
2023-02-19T15:05:55.381Z,22
2023-02-19T15:07:55.406Z,29
2023-02-19T15:10:55.389Z,78
2023-02-19T15:12:55.448Z,75
2023-02-19T15:16:55.400Z,48
2023-02-19T15:20:55.380Z,56
2023-02-19T15:22:55.484Z,41
2023-02-19T15:26:05.722Z,50
2023-02-19T15:28:55.412Z,53
2023-02-19T15:31:55.454Z,51
2023-02-19T15:33:55.439Z,70
2023-02-19T15:36:55.466Z,70
2023-02-19T15:39:55.459Z,26
2023-02-19T15:42:55.382Z,54
2023-02-19T15:44:55.456Z,45
2023-02-19T15:48:55.399Z,63
2023-02-19T15:51:55.385Z,52
2023-02-19T15:53:55.383Z,48
2023-02-19T15:55:55.408Z,48
2023-02-19T15:58:05.661Z,46
2023-02-19T16:00:55.440Z,39
2023-02-19T16:02:55.428Z,46
2023-02-19T16:05:55.473Z,46
2023-02-19T16:08:55.380Z,58
2023-02-19T16:10:55.422Z,38
2023-02-19T16:13:55.405Z,53
2023-02-19T16:16:06.067Z,42
2023-02-19T16:18:05.685Z,45
2023-02-19T16:20:55.376Z,49
2023-02-19T16:22:55.414Z,51
2023-02-19T16:25:55.438Z,42
2023-02-19T16:28:55.387Z,48
2023-02-19T16:30:55.510Z,49
2023-02-19T16:33:55.363Z,69
2023-02-19T16:35:55.395Z,48
2023-02-19T16:37:55.393Z,49
2023-02-19T16:40:55.414Z,41
2023-02-19T16:43:55.396Z,46
2023-02-19T16:45:57.141Z,51
2023-02-19T16:48:55.394Z,58
2023-02-19T16:51:55.388Z,58
2023-02-19T16:56:55.407Z,57
2023-02-19T16:58:55.369Z,72
2023-02-19T17:01:55.389Z,72
2023-02-19T17:04:55.389Z,84
2023-02-19T17:06:55.395Z,39
2023-02-19T17:08:55.384Z,63
2023-02-19T17:10:56.182Z,111
2023-02-19T17:12:55.401Z,55
2023-02-19T17:15:55.395Z,63
2023-02-19T17:17:55.429Z,57
2023-02-19T17:21:55.421Z,53
2023-02-19T17:23:55.518Z,73
2023-02-19T17:25:55.449Z,98
2023-02-19T17:28:55.440Z,60
2023-02-19T17:33:55.478Z,70
2023-02-19T17:36:55.396Z,78
2023-02-19T17:38:55.422Z,63
2023-02-19T17:40:55.412Z,72
2023-02-19T17:43:55.417Z,92
2023-02-19T17:45:55.452Z,93
2023-02-19T17:47:55.398Z,46
2023-02-19T17:50:55.400Z,54
2023-02-19T17:52:55.422Z,87
2023-02-19T17:54:55.436Z,65
2023-02-19T17:57:55.418Z,80
2023-02-19T18:00:55.520Z,79
2023-02-19T18:03:55.431Z,60
2023-02-19T18:06:55.416Z,86
2023-02-19T18:08:55.374Z,56
2023-02-19T18:11:55.401Z,61
2023-02-19T18:13:55.495Z,64
2023-02-19T18:16:55.532Z,110
2023-02-19T18:19:55.399Z,68
2023-02-19T18:22:55.417Z,111
2023-02-19T18:24:55.402Z,75
2023-02-19T18:26:55.410Z,77
2023-02-19T18:28:55.421Z,68
2023-02-19T18:30:55.480Z,63
2023-02-19T18:34:55.423Z,81
2023-02-19T18:36:55.453Z,66
2023-02-19T18:38:55.495Z,53
2023-02-19T18:41:55.449Z,62
2023-02-19T18:44:55.403Z,82
2023-02-19T18:46:55.447Z,57
2023-02-19T18:49:55.390Z,45
2023-02-19T18:51:55.400Z,59
2023-02-19T18:54:55.448Z,81
2023-02-19T18:57:55.427Z,54
2023-02-19T18:59:55.396Z,85
2023-02-19T19:01:55.554Z,46
2023-02-19T19:04:55.414Z,104
2023-02-19T19:07:55.458Z,49
2023-02-19T19:09:55.410Z,60
2023-02-19T19:11:55.396Z,96
2023-02-19T19:14:55.443Z,70
2023-02-19T19:17:55.413Z,60
2023-02-19T19:19:55.414Z,76
2023-02-19T19:21:55.426Z,57
2023-02-19T19:24:55.407Z,51
2023-02-19T19:27:55.426Z,82
2023-02-19T19:29:55.428Z,62
2023-02-19T19:32:55.415Z,74
2023-02-19T19:34:55.432Z,75
2023-02-19T19:37:02.309Z,82
2023-02-19T19:39:55.410Z,49
2023-02-19T19:42:55.401Z,60
2023-02-19T19:44:55.389Z,71
2023-02-19T19:46:55.449Z,126
2023-02-19T19:49:55.419Z,85
2023-02-19T19:52:55.428Z,43
2023-02-19T19:55:55.442Z,54
2023-02-19T19:58:55.466Z,55
2023-02-19T20:01:55.514Z,84
2023-02-19T20:03:55.427Z,64
2023-02-19T20:06:55.395Z,77
2023-02-19T20:08:55.433Z,59
2023-02-19T20:10:55.433Z,49
2023-02-19T20:12:55.440Z,77
2023-02-19T20:14:55.416Z,99
2023-02-19T20:17:55.437Z,85
2023-02-19T20:19:55.404Z,77
2023-02-19T20:21:55.501Z,94
2023-02-19T20:24:55.415Z,109
2023-02-19T20:26:55.441Z,64
2023-02-19T20:29:55.490Z,96
2023-02-19T20:32:55.460Z,51
2023-02-19T20:35:55.646Z,62
2023-02-19T20:38:55.412Z,51
2023-02-19T20:40:55.415Z,45
2023-02-19T20:42:55.424Z,55
2023-02-19T20:44:55.479Z,68
2023-02-19T20:47:55.439Z,43
2023-02-19T20:49:55.418Z,50
2023-02-19T20:52:55.430Z,59
2023-02-19T20:56:55.435Z,72
2023-02-19T20:58:55.417Z,102
2023-02-19T21:00:55.428Z,84
2023-02-19T21:04:55.432Z,91
2023-02-19T21:07:55.435Z,64
2023-02-19T21:09:55.526Z,98
2023-02-19T21:12:55.422Z,83
2023-02-19T21:15:55.545Z,69
2023-02-19T21:18:55.444Z,57
2023-02-19T21:21:55.402Z,78
2023-02-19T21:24:55.393Z,103
2023-02-19T21:26:55.424Z,83
2023-02-19T21:28:58.526Z,76
2023-02-19T21:31:55.478Z,74
2023-02-19T21:33:55.441Z,80
2023-02-19T21:37:04.877Z,56
2023-02-19T21:39:55.428Z,45
2023-02-19T21:42:55.470Z,45
2023-02-19T21:45:55.455Z,85
2023-02-19T21:47:55.494Z,73
2023-02-19T21:50:55.467Z,55
2023-02-19T21:53:55.445Z,52
2023-02-19T21:56:55.422Z,76
2023-02-19T21:58:55.448Z,49
2023-02-19T22:01:55.424Z,88
2023-02-19T22:03:55.438Z,43
2023-02-19T22:06:55.459Z,86
2023-02-19T22:08:55.417Z,84
2023-02-19T22:10:55.420Z,59
2023-02-19T22:12:57.122Z,78
2023-02-19T22:15:55.406Z,58
2023-02-19T22:17:55.426Z,63
2023-02-19T22:19:55.416Z,64
2023-02-19T22:22:55.419Z,84
2023-02-19T22:24:55.534Z,57
2023-02-19T22:27:05.715Z,76
2023-02-19T22:29:55.521Z,58
2023-02-19T22:33:55.432Z,70
2023-02-19T22:37:55.471Z,66
2023-02-19T22:40:55.482Z,42
2023-02-19T22:43:55.418Z,64
2023-02-19T22:45:55.510Z,71
2023-02-19T22:48:55.408Z,37
2023-02-19T22:50:55.405Z,61
2023-02-19T22:53:55.411Z,69
2023-02-19T22:55:55.455Z,47
2023-02-19T22:58:55.442Z,53
2023-02-19T23:01:55.421Z,54
2023-02-19T23:04:55.445Z,46
2023-02-19T23:07:55.440Z,39
2023-02-19T23:10:55.426Z,69
2023-02-19T23:13:55.433Z,66
2023-02-19T23:16:55.470Z,64
2023-02-19T23:18:55.454Z,81
2023-02-19T23:20:55.522Z,63
2023-02-19T23:23:55.449Z,78
2023-02-19T23:25:55.455Z,48
2023-02-19T23:28:55.454Z,57
2023-02-19T23:30:55.521Z,90
2023-02-19T23:33:55.444Z,46
2023-02-19T23:36:55.514Z,59
2023-02-19T23:39:55.456Z,70
2023-02-19T23:42:55.457Z,70
2023-02-19T23:44:55.450Z,74
2023-02-19T23:47:55.456Z,42
2023-02-19T23:49:55.477Z,90
2023-02-19T23:52:55.432Z,42
2023-02-19T23:55:56.513Z,52
2023-02-19T23:58:55.469Z,50
